Time;durP1;ratioP1;P1;durP2;ratioP2;P2;SDS_P1;SDS_P2;PMS_P1;PMS_P2;Temp;Humidity;BMP_temperature;BMP_pressure;BME280_temperature;BME280_humidity;BME280_pressure;Samples;Min_cycle;Max_cycle;Signal;HPM_P1;HPM_P2
2022/08/20 00:00:53;;;;;;;24.60;16.95;;;19.50;99.90;;;;;;7391195;19;20018;-81
2022/08/20 00:03:26;;;;;;;16.95;12.32;;;19.50;99.90;;;;;;7396459;19;20085;-80
2022/08/20 00:06:09;;;;;;;19.90;15.88;;;19.50;99.90;;;;;;7390887;19;20348;-81
2022/08/20 00:08:36;;;;;;;10.13;9.13;;;19.60;99.90;;;;;;7392891;19;20019;-80
2022/08/20 00:11:05;;;;;;;9.82;8.20;;;19.60;99.90;;;;;;7392528;19;20026;-81
2022/08/20 00:13:38;;;;;;;17.73;12.60;;;19.80;99.90;;;;;;7392574;19;20010;-81
2022/08/20 00:16:09;;;;;;;11.05;8.82;;;19.80;99.90;;;;;;7390086;19;20364;-81
2022/08/20 00:18:37;;;;;;;19.40;15.65;;;19.80;99.90;;;;;;7388907;19;20094;-81
2022/08/20 00:21:07;;;;;;;17.35;14.57;;;19.90;99.90;;;;;;7391890;19;20007;-81
2022/08/20 00:23:36;;;;;;;9.50;7.25;;;19.80;99.90;;;;;;7392322;19;20019;-81
2022/08/20 00:26:02;;;;;;;16.73;14.65;;;19.70;99.90;;;;;;7392219;19;20030;-81
2022/08/20 00:28:28;;;;;;;22.02;15.70;;;19.60;99.90;;;;;;7390262;19;20492;-81
2022/08/20 00:30:54;;;;;;;137.23;19.67;;;19.60;99.90;;;;;;7390651;19;20018;-81
2022/08/20 00:33:22;;;;;;;18.52;15.68;;;19.50;99.90;;;;;;7392361;19;20014;-81
2022/08/20 00:35:52;;;;;;;19.95;15.73;;;19.40;99.90;;;;;;7392003;19;20010;-81
2022/08/20 00:38:18;;;;;;;22.40;14.85;;;19.40;99.90;;;;;;7390504;19;20003;-81
2022/08/20 00:40:54;;;;;;;18.67;15.65;;;19.40;99.90;;;;;;7391943;19;20018;-80
2022/08/20 00:43:40;;;;;;;19.23;15.80;;;19.40;99.90;;;;;;7391570;19;20074;-80
2022/08/20 00:46:16;;;;;;;22.83;17.13;;;19.40;99.90;;;;;;7392974;19;20070;-80
2022/08/20 00:48:51;;;;;;;21.30;15.80;;;19.20;99.90;;;;;;7398897;19;20014;-80
2022/08/20 00:51:27;;;;;;;19.35;15.35;;;19.20;99.90;;;;;;7399157;19;20019;-81
2022/08/20 00:54:00;;;;;;;21.88;16.17;;;19.20;99.90;;;;;;7398615;19;20052;-81
2022/08/20 00:56:27;;;;;;;19.52;15.63;;;19.20;99.90;;;;;;7399543;19;20010;-80
2022/08/20 00:58:53;;;;;;;18.23;16.05;;;19.20;99.90;;;;;;7398426;19;20015;-81
2022/08/20 01:01:21;;;;;;;22.65;18.10;;;19.10;99.90;;;;;;7399932;19;20007;-81
2022/08/20 01:03:48;;;;;;;22.23;17.52;;;19.10;99.90;;;;;;7396667;19;20712;-80
2022/08/20 01:06:14;;;;;;;22.60;15.93;;;19.00;99.90;;;;;;7396734;19;20367;-81
2022/08/20 01:08:42;;;;;;;24.98;16.88;;;19.00;99.90;;;;;;7398364;19;20066;-81
2022/08/20 01:11:15;;;;;;;18.80;16.52;;;19.00;99.90;;;;;;7398186;19;20034;-81
2022/08/20 01:13:43;;;;;;;24.85;17.05;;;18.90;99.90;;;;;;7398153;19;20011;-81
2022/08/20 01:16:18;;;;;;;20.88;16.98;;;18.90;99.90;;;;;;7397424;19;20007;-81
2022/08/20 01:18:47;;;;;;;25.35;17.48;;;18.90;99.90;;;;;;7395019;19;20502;-81
2022/08/20 01:21:13;;;;;;;21.75;16.85;;;18.80;99.90;;;;;;7395973;19;20007;-81
2022/08/20 01:23:45;;;;;;;25.17;17.10;;;18.80;99.90;;;;;;7397795;19;20028;-81
2022/08/20 01:26:23;;;;;;;21.75;16.27;;;18.80;99.90;;;;;;7396178;19;20006;-81
2022/08/20 01:29:00;;;;;;;23.13;15.55;;;18.90;99.90;;;;;;7395774;19;20015;-81
2022/08/20 01:31:31;;;;;;;13.27;11.15;;;18.90;99.90;;;;;;7397586;19;20052;-81
2022/08/20 01:33:59;;;;;;;20.67;15.25;;;19.00;99.90;;;;;;7397769;19;20006;-81
2022/08/20 01:36:39;;;;;;;22.35;15.05;;;19.10;99.90;;;;;;7397331;19;20010;-80
2022/08/20 01:39:08;;;;;;;19.30;14.63;;;18.90;99.90;;;;;;7397064;19;20015;-81
2022/08/20 01:42:14;;;;;;;23.08;16.60;;;18.90;99.90;;;;;;7395499;19;20028;-81
2022/08/20 01:44:43;;;;;;;19.48;14.00;;;18.80;99.90;;;;;;7395136;19;20380;-81
2022/08/20 01:47:14;;;;;;;16.80;13.68;;;18.70;99.90;;;;;;7397003;19;20011;-80
2022/08/20 01:49:48;;;;;;;23.20;14.43;;;18.70;99.90;;;;;;7396228;19;20043;-81
2022/08/20 01:52:22;;;;;;;18.20;12.07;;;18.70;99.90;;;;;;7395474;19;20086;-81
2022/08/20 01:54:47;;;;;;;20.52;14.30;;;18.80;99.90;;;;;;7394994;19;20010;-81
2022/08/20 01:57:17;;;;;;;18.05;13.43;;;18.80;99.90;;;;;;7394358;19;20010;-80
2022/08/20 01:59:44;;;;;;;21.17;14.05;;;18.70;99.90;;;;;;7395226;19;20007;-80
2022/08/20 02:02:11;;;;;;;17.38;14.00;;;18.70;99.90;;;;;;7396537;19;20015;-80
2022/08/20 02:04:39;;;;;;;21.85;14.02;;;18.70;99.90;;;;;;7396564;19;20063;-81
2022/08/20 02:07:07;;;;;;;14.80;9.52;;;18.80;99.90;;;;;;7396799;19;20017;-81
2022/08/20 02:09:36;;;;;;;23.73;12.77;;;18.70;99.90;;;;;;7396552;19;20046;-80
2022/08/20 02:12:04;;;;;;;18.25;13.35;;;18.70;99.90;;;;;;7396042;19;20022;-80
2022/08/20 02:14:32;;;;;;;18.10;13.18;;;18.70;99.90;;;;;;7395198;19;20033;-80
2022/08/20 02:16:59;;;;;;;6.90;5.03;;;18.60;99.90;;;;;;7393871;19;20114;-80
2022/08/20 02:19:28;;;;;;;18.65;12.65;;;18.70;99.90;;;;;;7395486;19;20010;-80
2022/08/20 02:21:58;;;;;;;20.73;13.35;;;18.90;99.90;;;;;;7395763;19;20022;-81
2022/08/20 02:24:25;;;;;;;21.27;14.18;;;18.90;99.90;;;;;;7396033;19;20047;-81
2022/08/20 02:26:51;;;;;;;16.25;12.40;;;18.80;99.90;;;;;;7395506;19;20492;-81
2022/08/20 02:29:17;;;;;;;20.63;13.55;;;18.70;99.90;;;;;;7395920;19;20359;-80
2022/08/20 02:31:44;;;;;;;19.33;12.57;;;18.70;99.90;;;;;;7395949;19;20010;-81
2022/08/20 02:34:12;;;;;;;6.03;4.50;;;18.70;99.90;;;;;;7393974;19;20032;-80
2022/08/20 02:36:39;;;;;;;19.05;13.15;;;18.70;99.90;;;;;;7395152;19;20037;-80
2022/08/20 02:39:08;;;;;;;12.98;10.20;;;18.90;99.90;;;;;;7395521;19;20551;-80
2022/08/20 02:41:36;;;;;;;20.33;11.10;;;18.80;99.90;;;;;;7395135;19;20541;-80
2022/08/20 02:44:03;;;;;;;17.40;10.98;;;18.90;99.90;;;;;;7393944;19;20089;-81
2022/08/20 02:46:29;;;;;;;15.75;8.20;;;18.90;99.90;;;;;;7393624;19;20014;-81
2022/08/20 02:48:55;;;;;;;17.60;9.27;;;19.00;99.90;;;;;;7393330;19;20077;-81
2022/08/20 02:51:21;;;;;;;17.70;10.20;;;19.00;99.90;;;;;;7394812;19;20456;-81
2022/08/20 02:53:47;;;;;;;16.17;10.20;;;19.00;99.90;;;;;;7393544;19;20028;-81
2022/08/20 02:56:14;;;;;;;20.77;9.85;;;18.90;99.90;;;;;;7394968;19;20610;-81
2022/08/20 02:58:40;;;;;;;15.73;10.20;;;18.80;99.90;;;;;;7391794;19;20019;-81
2022/08/20 03:01:11;;;;;;;15.75;10.13;;;18.80;99.90;;;;;;7394605;19;20066;-81
2022/08/20 03:03:38;;;;;;;16.88;10.50;;;18.80;99.90;;;;;;7394456;19;20014;-81
2022/08/20 03:06:06;;;;;;;19.17;10.63;;;18.70;99.90;;;;;;7392601;19;20042;-81
2022/08/20 03:08:32;;;;;;;20.00;10.38;;;18.50;99.90;;;;;;7392533;19;20025;-81
2022/08/20 03:10:59;;;;;;;19.70;10.18;;;18.50;99.90;;;;;;7391807;19;20015;-81
2022/08/20 03:13:25;;;;;;;20.77;9.48;;;18.40;99.90;;;;;;7394472;19;20010;-80
2022/08/20 03:15:58;;;;;;;14.93;8.48;;;18.30;99.90;;;;;;7391703;19;20014;-81
2022/08/20 03:18:28;;;;;;;15.98;9.80;;;18.30;99.90;;;;;;7391010;19;20081;-81
2022/08/20 03:20:54;;;;;;;19.50;9.43;;;18.20;99.90;;;;;;7393542;19;20014;-79
2022/08/20 03:23:20;;;;;;;19.13;9.82;;;18.20;99.90;;;;;;7393476;19;20014;-81
2022/08/20 03:25:47;;;;;;;19.88;9.82;;;18.10;99.90;;;;;;7392564;19;20006;-80
2022/08/20 03:28:14;;;;;;;10.75;6.63;;;18.10;99.90;;;;;;7392462;19;20502;-81
2022/08/20 03:30:42;;;;;;;18.40;8.80;;;18.10;99.90;;;;;;7393707;19;20069;-80
2022/08/20 03:33:09;;;;;;;19.80;9.45;;;18.10;99.90;;;;;;7393444;19;20015;-81
2022/08/20 03:35:35;;;;;;;20.05;9.88;;;18.10;99.90;;;;;;7393289;19;20018;-81
2022/08/20 03:38:06;;;;;;;16.45;9.27;;;18.00;99.90;;;;;;7392631;19;20047;-81
2022/08/20 03:40:33;;;;;;;13.90;8.88;;;18.00;99.90;;;;;;7391872;19;20059;-80
2022/08/20 03:42:59;;;;;;;14.73;9.07;;;17.90;99.90;;;;;;7393485;19;20010;-80
2022/08/20 03:45:27;;;;;;;17.40;8.90;;;17.80;99.90;;;;;;7393285;19;20014;-81
2022/08/20 03:47:53;;;;;;;16.83;8.93;;;17.80;99.90;;;;;;7391794;19;20006;-81
2022/08/20 03:50:23;;;;;;;16.75;8.07;;;17.70;99.90;;;;;;7392481;19;20043;-81
2022/08/20 03:52:51;;;;;;;12.55;8.60;;;17.70;99.90;;;;;;7392971;19;20010;-80
2022/08/20 03:55:16;;;;;;;17.95;9.25;;;17.80;99.90;;;;;;7393072;19;20014;-81
2022/08/20 03:57:48;;;;;;;18.58;8.65;;;17.70;99.90;;;;;;7391009;19;20011;-81
2022/08/20 04:00:19;;;;;;;14.27;8.48;;;17.70;99.90;;;;;;7393118;19;20022;-80
2022/08/20 04:02:45;;;;;;;15.95;8.35;;;17.70;99.90;;;;;;7393127;19;20010;-81
2022/08/20 04:05:12;;;;;;;15.75;9.30;;;17.70;99.90;;;;;;7392918;19;20029;-81
2022/08/20 04:07:39;;;;;;;14.80;8.15;;;17.60;99.90;;;;;;7392824;19;20038;-81
2022/08/20 04:10:08;;;;;;;15.13;8.05;;;17.60;99.90;;;;;;7392451;19;20172;-81
2022/08/20 04:12:39;;;;;;;19.58;8.40;;;17.50;99.90;;;;;;7392412;19;20015;-81
2022/08/20 04:15:14;;;;;;;20.00;7.82;;;17.50;99.90;;;;;;7390861;19;20011;-81
2022/08/20 04:17:42;;;;;;;22.65;8.32;;;17.50;99.90;;;;;;7391244;19;20019;-81
2022/08/20 04:20:10;;;;;;;22.50;7.90;;;17.50;99.90;;;;;;7390437;19;20102;-80
2022/08/20 04:22:37;;;;;;;14.23;7.68;;;17.40;99.90;;;;;;7396360;19;20014;-80
2022/08/20 04:25:05;;;;;;;12.93;7.13;;;17.40;99.90;;;;;;7399834;19;20013;-80
2022/08/20 04:27:34;;;;;;;16.40;7.70;;;17.40;99.90;;;;;;7398426;19;20629;-80
2022/08/20 04:30:02;;;;;;;19.23;7.38;;;17.40;99.90;;;;;;7398054;19;20006;-79
2022/08/20 04:32:29;;;;;;;19.35;6.65;;;17.30;99.90;;;;;;7399547;19;20007;-80
2022/08/20 04:34:54;;;;;;;13.68;6.53;;;17.30;99.90;;;;;;7400142;19;20082;-79
2022/08/20 04:37:22;;;;;;;15.93;7.07;;;17.40;99.90;;;;;;7398244;19;20133;-80
2022/08/20 04:40:52;;;;;;;13.52;6.82;;;17.30;99.90;;;;;;7397804;19;20006;-80
2022/08/20 04:42:35;;;;;;;17.42;6.88;;;17.30;99.90;;;;;;7399293;19;20015;-80
2022/08/20 04:45:05;;;;;;;15.50;6.38;;;17.30;99.90;;;;;;7399191;19;20027;-80
2022/08/20 04:47:32;;;;;;;15.13;6.20;;;17.30;99.90;;;;;;7399193;19;20018;-80
2022/08/20 04:50:01;;;;;;;16.92;6.00;;;17.30;99.90;;;;;;7398666;19;20026;-79
2022/08/20 04:52:27;;;;;;;16.85;5.82;;;17.20;99.90;;;;;;7399602;19;20014;-80
2022/08/20 04:54:55;;;;;;;12.85;4.45;;;17.30;99.90;;;;;;7398960;19;20013;-80
2022/08/20 04:57:25;;;;;;;12.88;5.18;;;17.20;99.90;;;;;;7398348;19;20014;-80
2022/08/20 04:59:52;;;;;;;15.75;5.13;;;17.20;99.90;;;;;;7398697;19;20010;-80
2022/08/20 05:02:19;;;;;;;17.88;5.22;;;17.20;99.90;;;;;;7398649;19;20014;-80
2022/08/20 05:04:46;;;;;;;10.43;4.18;;;17.20;99.90;;;;;;7398679;19;20341;-80
2022/08/20 05:07:15;;;;;;;11.52;4.55;;;17.20;99.90;;;;;;7398627;19;20352;-80
2022/08/20 05:09:41;;;;;;;14.95;4.30;;;17.20;99.90;;;;;;7397012;19;20370;-80
2022/08/20 05:12:08;;;;;;;13.48;4.90;;;17.20;99.90;;;;;;7397794;19;20021;-80
2022/08/20 05:14:35;;;;;;;10.50;3.75;;;17.10;99.90;;;;;;7397305;19;20483;-80
2022/08/20 05:17:04;;;;;;;13.77;4.22;;;17.10;99.90;;;;;;7397278;19;20003;-80
2022/08/20 05:19:31;;;;;;;13.50;4.07;;;17.10;99.90;;;;;;7397619;19;20062;-79
2022/08/20 05:21:57;;;;;;;10.40;3.88;;;17.10;99.90;;;;;;7397810;19;20034;-80
2022/08/20 05:24:24;;;;;;;13.57;4.15;;;17.20;99.90;;;;;;7397419;19;20007;-79
2022/08/20 05:26:49;;;;;;;11.05;3.70;;;17.20;99.90;;;;;;7397408;19;20551;-80
2022/08/20 05:29:16;;;;;;;12.20;2.90;;;17.20;99.90;;;;;;7396026;19;20010;-80
2022/08/20 05:31:42;;;;;;;14.35;3.70;;;17.20;99.90;;;;;;7397691;19;20017;-80
2022/08/20 05:34:11;;;;;;;17.98;3.55;;;17.20;99.90;;;;;;7395471;19;20010;-79
2022/08/20 05:36:46;;;;;;;11.27;3.38;;;17.20;99.90;;;;;;7396841;19;20015;-79
2022/08/20 05:39:13;;;;;;;11.48;2.88;;;17.20;99.90;;;;;;7395755;19;20098;-80
2022/08/20 05:41:40;;;;;;;13.75;3.40;;;17.20;99.90;;;;;;7397055;19;20014;-80
2022/08/20 05:44:12;;;;;;;12.77;3.70;;;17.30;99.90;;;;;;7396891;19;20029;-80
2022/08/20 05:46:39;;;;;;;12.30;3.53;;;17.30;99.90;;;;;;7395556;19;20011;-80
2022/08/20 05:49:18;;;;;;;11.77;3.10;;;17.30;99.90;;;;;;7395462;19;20463;-80
2022/08/20 05:51:44;;;;;;;11.63;3.75;;;17.30;99.90;;;;;;7397074;19;20021;-80
2022/08/20 05:54:13;;;;;;;10.73;3.25;;;17.30;99.90;;;;;;7397211;19;20471;-80
2022/08/20 05:56:40;;;;;;;13.00;3.58;;;17.30;99.90;;;;;;7398135;19;20337;-80
2022/08/20 05:59:08;;;;;;;12.45;3.60;;;17.20;99.90;;;;;;7397140;19;20021;-79
2022/08/20 06:01:36;;;;;;;13.60;3.70;;;17.10;99.90;;;;;;7396356;19;20394;-80
2022/08/20 06:06:47;;;;;;;10.95;2.65;;;17.10;99.90;;;;;;7396510;19;20400;-80
2022/08/20 06:09:15;;;;;;;10.75;2.90;;;17.20;99.90;;;;;;7394990;19;20018;-80
2022/08/20 06:11:41;;;;;;;9.30;2.80;;;17.20;99.90;;;;;;7396159;19;20015;-80
2022/08/20 06:14:07;;;;;;;12.43;3.20;;;17.30;99.90;;;;;;7395370;19;20037;-80
2022/08/20 06:16:33;;;;;;;11.52;3.08;;;17.40;99.90;;;;;;7396989;19;20033;-80
2022/08/20 06:18:59;;;;;;;8.65;2.72;;;17.40;99.90;;;;;;7394118;19;20699;-80
2022/08/20 06:21:28;;;;;;;13.70;3.05;;;17.40;99.90;;;;;;7394358;19;20353;-80
2022/08/20 06:23:54;;;;;;;11.40;2.92;;;17.40;99.90;;;;;;7394996;19;20010;-80
2022/08/20 06:26:20;;;;;;;10.88;2.95;;;17.40;99.90;;;;;;7395995;19;20025;-80
2022/08/20 06:28:46;;;;;;;9.30;2.60;;;17.50;99.90;;;;;;7394012;19;20010;-80
2022/08/20 06:31:11;;;;;;;10.50;2.75;;;17.50;99.90;;;;;;7395375;19;20010;-80
2022/08/20 06:33:37;;;;;;;13.05;2.92;;;17.50;99.90;;;;;;7393986;19;20014;-80
2022/08/20 06:36:03;;;;;;;12.70;2.72;;;17.60;99.90;;;;;;7395455;19;20482;-80
2022/08/20 06:38:31;;;;;;;14.60;3.13;;;17.60;99.90;;;;;;7393632;19;20018;-80
2022/08/20 06:40:58;;;;;;;12.98;3.15;;;17.80;99.90;;;;;;7395233;19;20503;-80
2022/08/20 06:43:24;;;;;;;13.30;2.67;;;17.80;99.90;;;;;;7395400;19;20010;-80
2022/08/20 06:45:50;;;;;;;9.15;2.40;;;17.80;99.90;;;;;;7394897;19;20011;-80
2022/08/20 06:48:16;;;;;;;10.90;2.33;;;18.00;99.90;;;;;;7395104;19;20372;-80
2022/08/20 06:50:45;;;;;;;12.27;2.50;;;18.00;99.90;;;;;;7394448;19;20011;-80
2022/08/20 06:53:13;;;;;;;7.50;1.95;;;18.10;99.90;;;;;;7394823;19;20595;-81
2022/08/20 06:55:43;;;;;;;9.38;1.98;;;18.20;99.90;;;;;;7397929;19;20344;-80
2022/08/20 06:58:10;;;;;;;10.85;2.40;;;18.40;99.90;;;;;;7394321;19;20048;-80
2022/08/20 07:00:39;;;;;;;8.65;2.20;;;18.60;99.90;;;;;;7394654;19;20488;-80
2022/08/20 07:03:05;;;;;;;12.18;2.25;;;18.70;99.90;;;;;;7392887;19;20007;-80
2022/08/20 07:05:34;;;;;;;9.48;2.10;;;18.70;99.90;;;;;;7394723;19;20070;-80
2022/08/20 07:08:00;;;;;;;10.10;2.33;;;18.60;99.90;;;;;;7394404;19;20025;-80
2022/08/20 07:10:27;;;;;;;8.32;2.30;;;18.60;99.90;;;;;;7394755;19;20002;-80
2022/08/20 07:12:53;;;;;;;13.45;2.65;;;18.70;99.90;;;;;;7394013;19;20021;-80
2022/08/20 07:15:21;;;;;;;12.65;2.13;;;18.80;99.90;;;;;;7393360;19;20010;-80
2022/08/20 07:17:57;;;;;;;8.60;2.10;;;19.10;99.90;;;;;;7393365;19;20023;-80
2022/08/20 07:20:24;;;;;;;10.63;2.10;;;19.50;99.90;;;;;;7391893;19;20015;-80
2022/08/20 07:22:51;;;;;;;11.75;2.20;;;19.70;99.90;;;;;;7393960;19;20074;-80
2022/08/20 07:25:20;;;;;;;11.20;2.10;;;20.00;99.90;;;;;;7393430;19;20010;-81
2022/08/20 07:27:50;;;;;;;6.25;1.55;;;20.40;99.90;;;;;;7393020;19;20018;-81
2022/08/20 07:33:08;;;;;;;6.32;1.45;;;20.90;99.90;;;;;;7393408;19;20022;-80
2022/08/20 07:35:34;;;;;;;5.50;1.33;;;20.70;99.90;;;;;;7393312;19;20027;-81
2022/08/20 07:38:00;;;;;;;7.93;1.67;;;20.70;99.90;;;;;;7392517;19;20509;-80
2022/08/20 07:40:29;;;;;;;6.28;1.45;;;20.80;99.90;;;;;;7393241;19;20007;-81
2022/08/20 07:42:57;;;;;;;7.43;1.40;;;20.60;99.90;;;;;;7393237;19;20010;-81
2022/08/20 07:45:23;;;;;;;6.60;1.50;;;20.50;99.90;;;;;;7393398;19;20378;-80
2022/08/20 07:47:52;;;;;;;7.00;1.20;;;20.40;99.90;;;;;;7391496;19;20010;-80
2022/08/20 07:50:21;;;;;;;10.10;1.95;;;20.40;99.90;;;;;;7393161;19;20034;-80
2022/08/20 07:52:47;;;;;;;9.30;1.52;;;20.50;99.90;;;;;;7393003;19;20017;-81
2022/08/20 07:55:15;;;;;;;7.43;1.30;;;20.50;99.90;;;;;;7393232;19;20395;-81
2022/08/20 07:57:42;;;;;;;6.78;1.52;;;20.30;99.90;;;;;;7397183;19;20011;-80
2022/08/20 08:00:10;;;;;;;10.55;1.60;;;20.00;99.90;;;;;;7399533;19;20025;-80
2022/08/20 08:02:38;;;;;;;4.53;1.38;;;20.10;99.90;;;;;;7400559;19;20014;-81
2022/08/20 08:05:05;;;;;;;6.82;1.67;;;20.40;99.90;;;;;;7401264;19;20015;-80
2022/08/20 08:07:32;;;;;;;7.63;1.60;;;20.60;99.90;;;;;;7400320;19;20348;-81
2022/08/20 08:10:00;;;;;;;6.03;1.52;;;20.70;99.90;;;;;;7398917;19;20055;-81
2022/08/20 08:12:34;;;;;;;9.30;1.73;;;20.70;99.90;;;;;;7400225;19;20049;-80
2022/08/20 08:15:02;;;;;;;8.90;1.70;;;20.60;99.90;;;;;;7397994;19;20018;-81
2022/08/20 08:17:30;;;;;;;6.70;1.70;;;20.30;99.90;;;;;;7397505;19;20529;-81
2022/08/20 08:19:57;;;;;;;7.55;1.40;;;20.20;99.90;;;;;;7399566;19;20357;-81
2022/08/20 08:22:23;;;;;;;7.57;1.77;;;20.10;99.90;;;;;;7400067;19;20491;-81
2022/08/20 08:24:49;;;;;;;7.03;1.67;;;20.10;99.90;;;;;;7400452;19;20010;-81
2022/08/20 08:27:18;;;;;;;7.85;1.63;;;20.00;99.90;;;;;;7398903;19;20494;-81
2022/08/20 08:29:45;;;;;;;4.07;1.17;;;20.30;99.90;;;;;;7399548;19;20006;-81
2022/08/20 08:32:11;;;;;;;4.95;1.50;;;21.00;99.90;;;;;;7399757;19;20083;-80
2022/08/20 08:34:38;;;;;;;7.25;1.30;;;21.80;99.90;;;;;;7398172;19;20088;-81
2022/08/20 08:37:04;;;;;;;5.53;1.00;;;22.20;99.90;;;;;;7399413;19;20498;-81
2022/08/20 08:39:31;;;;;;;6.32;1.50;;;22.00;99.90;;;;;;7399370;19;20746;-81
2022/08/20 08:41:59;;;;;;;6.88;1.33;;;21.70;99.90;;;;;;7397464;19;20011;-81
2022/08/20 08:44:30;;;;;;;5.95;1.15;;;21.60;99.90;;;;;;7398029;19;20033;-81
2022/08/20 08:47:05;;;;;;;6.22;1.17;;;21.50;99.90;;;;;;7399137;19;20010;-81
2022/08/20 08:49:34;;;;;;;6.18;1.27;;;21.40;99.90;;;;;;7399319;19;20047;-81
2022/08/20 08:52:00;;;;;;;3.90;0.93;;;21.40;99.90;;;;;;7399924;19;20017;-81
2022/08/20 08:54:28;;;;;;;6.03;1.25;;;21.30;99.90;;;;;;7397266;19;20423;-81
2022/08/20 08:56:54;;;;;;;6.47;1.33;;;21.40;99.90;;;;;;7398723;19;20082;-81
2022/08/20 08:59:22;;;;;;;5.45;1.30;;;21.20;99.90;;;;;;7398781;19;20342;-81
2022/08/20 09:01:55;;;;;;;7.20;1.58;;;21.40;99.90;;;;;;7397172;19;20021;-81
2022/08/20 09:04:30;;;;;;;3.83;0.82;;;21.50;99.90;;;;;;7396986;19;20014;-81
2022/08/20 09:06:57;;;;;;;7.00;1.52;;;21.40;99.90;;;;;;7399459;19;20018;-81
2022/08/20 09:09:29;;;;;;;4.82;2.05;;;21.30;99.90;;;;;;7397215;19;20010;-81
2022/08/20 09:12:03;;;;;;;7.35;1.80;;;21.30;99.90;;;;;;7398291;19;20010;-80
2022/08/20 09:14:29;;;;;;;6.00;1.17;;;21.30;99.90;;;;;;7397051;19;20029;-81
2022/08/20 09:16:55;;;;;;;7.10;1.08;;;21.40;99.90;;;;;;7397664;19;20542;-81
2022/08/20 09:19:21;;;;;;;6.97;0.90;;;21.50;99.90;;;;;;7397546;19;20014;-81
2022/08/20 09:21:48;;;;;;;5.65;1.00;;;21.70;99.90;;;;;;7398187;19;20013;-81
2022/08/20 09:24:14;;;;;;;3.35;0.88;;;21.80;99.90;;;;;;7398272;19;20424;-81
2022/08/20 09:26:40;;;;;;;4.45;1.13;;;21.90;99.90;;;;;;7397845;19;20371;-81
2022/08/20 09:29:06;;;;;;;6.47;1.08;;;22.00;99.90;;;;;;7395385;19;20483;-81
2022/08/20 09:31:32;;;;;;;5.25;1.17;;;21.90;99.90;;;;;;7396232;19;20014;-81
2022/08/20 09:33:57;;;;;;;6.75;1.42;;;22.10;99.90;;;;;;7398033;19;20006;-81
2022/08/20 09:36:23;;;;;;;5.93;1.35;;;22.40;99.90;;;;;;7397297;19;20367;-81
2022/08/20 09:38:49;;;;;;;6.63;1.25;;;22.40;99.90;;;;;;7395518;19;20010;-81
2022/08/20 09:41:15;;;;;;;4.47;0.93;;;22.50;99.90;;;;;;7397348;19;20010;-81
2022/08/20 09:43:41;;;;;;;3.47;1.02;;;22.70;99.90;;;;;;7395564;19;20025;-80
2022/08/20 09:46:06;;;;;;;4.95;1.15;;;22.80;99.90;;;;;;7397264;19;20021;-81
2022/08/20 09:48:32;;;;;;;5.47;1.20;;;23.10;99.90;;;;;;7396627;19;20015;-81
2022/08/20 09:50:59;;;;;;;6.68;1.20;;;23.30;99.90;;;;;;7396835;19;20122;-81
2022/08/20 09:53:25;;;;;;;3.95;1.00;;;23.50;99.90;;;;;;7396998;19;20359;-81
2022/08/20 09:55:53;;;;;;;5.50;1.10;;;23.60;99.90;;;;;;7395219;19;20090;-81
2022/08/20 09:58:37;;;;;;;4.28;1.10;;;23.60;99.90;;;;;;7395881;19;20011;-81
2022/08/20 10:01:08;;;;;;;9.25;2.35;;;23.50;99.90;;;;;;7395472;19;20010;-81
2022/08/20 10:03:34;;;;;;;5.05;1.35;;;23.40;99.90;;;;;;7395053;19;20019;-81
2022/08/20 10:06:03;;;;;;;5.47;1.35;;;23.60;99.90;;;;;;7394594;19;20018;-81
2022/08/20 10:08:29;;;;;;;6.38;1.40;;;23.80;99.90;;;;;;7394641;19;20085;-81
2022/08/20 10:10:55;;;;;;;5.93;1.25;;;24.10;99.90;;;;;;7394665;19;20006;-81
2022/08/20 10:13:20;;;;;;;3.42;0.95;;;24.20;99.90;;;;;;7396107;19;20014;-81
2022/08/20 10:15:46;;;;;;;3.10;0.93;;;23.80;99.90;;;;;;7394501;19;20333;-79
2022/08/20 10:18:12;;;;;;;5.72;1.30;;;23.80;99.90;;;;;;7395392;19;20377;-80
2022/08/20 10:20:39;;;;;;;5.00;1.30;;;23.80;99.90;;;;;;7394328;19;20468;-80
2022/08/20 10:23:05;;;;;;;4.75;1.05;;;23.60;99.20;;;;;;7395890;19;20010;-80
2022/08/20 10:25:31;;;;;;;4.00;1.05;;;23.80;99.90;;;;;;7395894;19;20081;-80
2022/08/20 10:27:58;;;;;;;4.75;1.10;;;24.10;99.90;;;;;;7393201;19;20007;-80
2022/08/20 10:30:24;;;;;;;3.33;0.80;;;24.30;99.90;;;;;;7395554;19;20565;-79
2022/08/20 10:32:49;;;;;;;7.85;1.08;;;24.30;99.90;;;;;;7395723;19;20014;-81
2022/08/20 10:35:16;;;;;;;4.40;0.93;;;24.30;99.80;;;;;;7393651;19;20011;-80
2022/08/20 10:37:41;;;;;;;3.80;0.80;;;24.20;99.90;;;;;;7394476;19;20011;-80
2022/08/20 10:40:08;;;;;;;5.30;1.10;;;23.50;97.20;;;;;;7394568;19;20010;-80
2022/08/20 10:42:34;;;;;;;5.15;1.27;;;23.30;99.90;;;;;;7395161;19;20014;-80
2022/08/20 10:45:00;;;;;;;3.58;1.00;;;23.40;99.90;;;;;;7395448;19;20022;-80
2022/08/20 10:47:29;;;;;;;5.65;1.02;;;23.30;99.50;;;;;;7395612;19;20022;-81
2022/08/20 10:49:57;;;;;;;5.18;1.23;;;23.50;98.50;;;;;;7396529;19;20006;-79
2022/08/20 10:52:24;;;;;;;4.55;1.08;;;23.80;97.40;;;;;;7395231;19;20393;-80
2022/08/20 10:54:50;;;;;;;3.20;0.80;;;24.00;97.50;;;;;;7394915;19;20653;-80
2022/08/20 10:57:23;;;;;;;4.05;0.73;;;24.30;97.50;;;;;;7394587;19;20014;-80
2022/08/20 10:59:51;;;;;;;4.35;1.15;;;24.40;96.80;;;;;;7394489;19;20014;-81
2022/08/20 11:02:18;;;;;;;3.80;0.98;;;24.10;97.40;;;;;;7394747;19;20045;-80
2022/08/20 11:04:48;;;;;;;3.60;0.75;;;24.00;98.00;;;;;;7394494;19;20495;-80
2022/08/20 11:07:30;;;;;;;5.15;1.00;;;24.10;98.20;;;;;;7394363;19;20344;-80
2022/08/20 11:09:56;;;;;;;4.88;0.93;;;24.20;97.60;;;;;;7394068;19;20011;-80
2022/08/20 11:12:22;;;;;;;4.07;1.08;;;24.20;97.40;;;;;;7392781;19;20018;-79
2022/08/20 11:14:50;;;;;;;6.18;0.90;;;24.40;97.90;;;;;;7393710;19;20357;-80
2022/08/20 11:17:27;;;;;;;5.07;1.05;;;24.20;97.50;;;;;;7393602;19;20056;-80
2022/08/20 11:19:55;;;;;;;7.28;1.08;;;23.60;98.00;;;;;;7393441;19;20018;-80
2022/08/20 11:22:21;;;;;;;5.10;1.10;;;23.30;99.00;;;;;;7393693;19;20002;-79
2022/08/20 11:24:48;;;;;;;4.93;1.10;;;23.20;99.80;;;;;;7394063;19;20018;-80
2022/08/20 11:27:30;;;;;;;4.18;0.90;;;23.30;99.40;;;;;;7393207;19;20531;-80
2022/08/20 11:29:56;;;;;;;5.30;1.17;;;23.40;99.60;;;;;;7393792;19;20010;-79
2022/08/20 11:32:22;;;;;;;2.83;0.82;;;23.50;99.90;;;;;;7391303;19;20359;-80
2022/08/20 11:34:48;;;;;;;2.63;0.75;;;23.70;99.90;;;;;;7393635;19;20070;-79
2022/08/20 11:37:15;;;;;;;4.70;1.00;;;23.90;99.90;;;;;;7393297;19;20014;-80
2022/08/20 11:39:41;;;;;;;3.97;1.02;;;24.30;99.90;;;;;;7392364;19;20019;-80
2022/08/20 11:42:07;;;;;;;4.47;1.00;;;24.50;99.90;;;;;;7393813;19;20024;-80
2022/08/20 11:44:33;;;;;;;3.28;0.70;;;24.70;99.90;;;;;;7391928;19;20006;-80
2022/08/20 11:47:02;;;;;;;1.95;0.70;;;24.90;99.90;;;;;;7391913;19;20007;-79
2022/08/20 11:49:35;;;;;;;4.32;1.10;;;25.00;99.90;;;;;;7396471;19;20090;-80
2022/08/20 11:52:03;;;;;;;4.13;1.48;;;25.30;99.20;;;;;;7393274;19;20074;-80
2022/08/20 11:54:30;;;;;;;2.72;0.65;;;25.50;98.50;;;;;;7393309;19;20025;-80
2022/08/20 11:56:56;;;;;;;3.65;0.70;;;25.60;98.60;;;;;;7393029;19;20492;-80
2022/08/20 11:59:23;;;;;;;4.13;1.17;;;25.80;98.90;;;;;;7391493;19;20021;-81
2022/08/20 12:01:52;;;;;;;5.20;1.10;;;25.80;97.60;;;;;;7392846;19;20360;-80
2022/08/20 12:04:17;;;;;;;8.93;1.30;;;25.20;96.10;;;;;;7392755;19;20019;-80
2022/08/20 12:06:43;;;;;;;3.72;1.15;;;24.80;95.10;;;;;;7392708;19;20021;-80
2022/08/20 12:09:09;;;;;;;3.00;0.75;;;24.30;95.90;;;;;;7392787;19;20082;-80
2022/08/20 12:11:35;;;;;;;7.72;1.52;;;24.30;99.10;;;;;;7392987;19;20006;-80
2022/08/20 12:14:01;;;;;;;5.47;1.15;;;24.30;98.10;;;;;;7392005;19;20471;-81
2022/08/20 12:16:26;;;;;;;5.85;1.10;;;24.30;97.60;;;;;;7392479;19;20558;-81
2022/08/20 12:18:52;;;;;;;3.67;1.05;;;24.00;97.90;;;;;;7388861;19;20019;-81
2022/08/20 12:21:18;;;;;;;3.83;1.10;;;23.80;97.00;;;;;;7392849;19;20372;-81
2022/08/20 12:23:44;;;;;;;7.53;1.20;;;23.60;97.50;;;;;;7390973;19;20048;-80
2022/08/20 12:26:11;;;;;;;5.00;1.20;;;23.20;98.60;;;;;;7392075;19;20014;-81
2022/08/20 12:28:37;;;;;;;3.13;0.90;;;23.20;99.20;;;;;;7390850;19;20022;-80
2022/08/20 12:31:03;;;;;;;7.35;1.42;;;23.10;99.90;;;;;;7391980;19;20017;-81
2022/08/20 12:33:29;;;;;;;5.90;1.08;;;23.30;99.50;;;;;;7392154;19;20014;-80
2022/08/20 12:35:56;;;;;;;6.18;1.13;;;23.50;99.90;;;;;;7391975;19;20017;-80
2022/08/20 12:38:21;;;;;;;5.78;1.38;;;23.70;99.90;;;;;;7389009;19;20483;-80
2022/08/20 12:40:47;;;;;;;6.93;1.13;;;23.90;99.30;;;;;;7392045;19;20021;-80
2022/08/20 12:43:13;;;;;;;3.58;0.80;;;23.80;98.80;;;;;;7395989;19;20052;-80
2022/08/20 12:45:39;;;;;;;5.57;1.38;;;23.80;99.90;;;;;;7399707;19;20018;-79
2022/08/20 12:48:10;;;;;;;4.85;0.93;;;24.00;99.40;;;;;;7402524;19;20017;-80